Time;durP1;ratioP1;P1;durP2;ratioP2;P2;SDS_P1;SDS_P2;PMS_P1;PMS_P2;Temp;Humidity;BMP_temperature;BMP_pressure;BME280_temperature;BME280_humidity;BME280_pressure;Samples;Min_cycle;Max_cycle;Signal;HPM_P1;HPM_P2
2021/01/29 00:00:54;;;;;;;1.20;1.00;;;;;;;7.46;83.01;94611.47;4931536;29;20078;-47
2021/01/29 00:03:20;;;;;;;2.35;1.10;;;;;;;7.46;82.87;94613.41;4934516;29;20536;-44
2021/01/29 00:05:54;;;;;;;1.42;0.93;;;;;;;7.35;83.05;94607.75;4935300;29;20114;-44
2021/01/29 00:08:22;;;;;;;2.60;1.38;;;;;;;7.42;83.26;94607.91;4934438;29;20066;-44
2021/01/29 00:10:50;;;;;;;0.93;0.82;;;;;;;7.39;83.06;94607.81;4936080;29;20131;-42
2021/01/29 00:13:17;;;;;;;0.95;0.75;;;;;;;7.32;83.26;94604.94;4933994;29;20073;-45
2021/01/29 00:15:44;;;;;;;1.27;0.90;;;;;;;7.45;82.74;94609.16;4932343;29;20139;-44
2021/01/29 00:18:11;;;;;;;1.55;1.02;;;;;;;7.37;82.97;94594.69;4925609;29;20488;-49
2021/01/29 00:20:37;;;;;;;1.38;0.90;;;;;;;7.42;82.70;94599.84;4923176;29;20055;-44
2021/01/29 00:23:04;;;;;;;1.17;0.95;;;;;;;7.49;82.26;94600.03;4923841;29;20450;-47
2021/01/29 00:25:37;;;;;;;1.80;1.00;;;;;;;7.52;nan;94598.56;4934224;29;20060;-46
2021/01/29 00:28:05;;;;;;;1.15;0.80;;;;;;;7.53;81.96;94599.34;4932173;29;20074;-45
2021/01/29 00:30:33;;;;;;;1.10;0.90;;;;;;;7.66;81.37;94604.31;4934691;29;20083;-48
2021/01/29 00:33:00;;;;;;;0.80;0.70;;;;;;;7.57;81.79;94601.03;4932232;29;20134;-44
2021/01/29 00:35:30;;;;;;;0.80;0.75;;;;;;;7.42;82.13;94588.31;4933478;29;20416;-44
2021/01/29 00:37:58;;;;;;;2.17;1.15;;;;;;;7.53;81.85;94592.03;4930490;29;20505;-44
2021/01/29 00:40:25;;;;;;;0.75;0.70;;;;;;;7.40;82.28;94591.31;4935332;29;20470;-43
2021/01/29 00:42:52;;;;;;;2.10;1.00;;;;;;;7.34;82.58;94584.63;4934170;29;20056;-43
2021/01/29 00:45:21;;;;;;;1.00;0.90;;;;;;;7.37;82.29;94591.25;4924389;29;20052;-45
2021/01/29 00:47:48;;;;;;;2.28;1.10;;;;;;;7.39;82.30;94587.06;4921788;29;20115;-50
2021/01/29 00:50:15;;;;;;;1.45;0.90;;;;;;;7.44;81.97;94592.22;4916487;28;21902;-47
2021/01/29 00:52:42;;;;;;;1.17;0.90;;;;;;;7.37;82.40;94593.94;4916523;29;21250;-48
2021/01/29 00:55:09;;;;;;;1.20;0.80;;;;;;;7.29;82.63;94594.88;4919160;29;20052;-48
2021/01/29 00:57:44;;;;;;;0.93;0.82;;;;;;;7.37;82.15;94599.31;4915517;29;20428;-44
2021/01/29 01:00:29;;;;;;;1.30;0.90;;;;;;;7.34;82.33;94589.22;4919091;29;20111;-50
2021/01/29 01:03:00;;;;;;;0.77;0.77;;;;;;;7.24;82.72;94588.59;4932871;29;20369;-48
2021/01/29 01:05:28;;;;;;;1.80;1.13;;;;;;;7.18;82.61;94584.63;4931447;29;20064;-44
2021/01/29 01:07:56;;;;;;;1.20;0.80;;;;;;;7.26;82.12;94586.34;4929398;29;20052;-48
2021/01/29 01:10:23;;;;;;;1.90;1.00;;;;;;;7.22;82.30;94582.78;4934846;29;20417;-50
2021/01/29 01:13:13;;;;;;;0.63;0.60;;;;;;;7.14;82.59;94575.66;4933314;29;20114;-49
2021/01/29 01:15:59;;;;;;;0.75;0.73;;;;;;;7.13;82.92;94581.38;4933127;29;20052;-49
2021/01/29 01:18:26;;;;;;;0.80;0.80;;;;;;;7.20;82.57;94578.88;4916557;29;20055;-51
2021/01/29 01:21:06;;;;;;;1.10;0.90;;;;;;;7.36;81.80;94574.31;4930529;29;20055;-51
2021/01/29 01:23:38;;;;;;;1.00;0.70;;;;;;;7.46;81.73;94573.81;4933908;29;20122;-48
2021/01/29 01:26:05;;;;;;;1.02;0.70;;;;;;;7.47;81.46;94574.59;4931997;29;20453;-48
2021/01/29 01:28:56;;;;;;;1.00;0.90;;;;;;;7.20;82.75;94563.50;4931314;29;20099;-47
2021/01/29 01:31:23;;;;;;;0.80;0.80;;;;;;;7.33;82.27;94558.06;4933153;29;20075;-48
2021/01/29 01:34:14;;;;;;;0.98;0.80;;;;;;;7.19;82.93;94553.88;4933152;29;20457;-49
2021/01/29 01:37:03;;;;;;;1.00;0.90;;;;;;;7.43;81.79;94562.94;4947068;28;20051;-50
2021/01/29 01:39:59;;;;;;;1.00;0.90;;;;;;;7.26;82.54;94548.69;4930071;29;20098;-51
2021/01/29 01:42:26;;;;;;;0.75;0.70;;;;;;;7.28;82.78;94545.69;4931426;29;20063;-50
2021/01/29 01:44:52;;;;;;;1.17;0.77;;;;;;;7.47;81.85;94553.06;4931411;29;20126;-49
2021/01/29 01:47:35;;;;;;;1.05;0.82;;;;;;;7.26;83.01;94543.31;4940014;28;20588;-50
2021/01/29 01:50:45;;;;;;;2.28;0.80;;;;;;;7.30;83.15;94531.88;4931280;29;20075;-49
2021/01/29 01:53:27;;;;;;;1.10;0.90;;;;;;;7.33;82.62;94525.78;4928126;29;20044;-48
2021/01/29 01:56:37;;;;;;;0.98;0.80;;;;;;;7.24;82.89;94507.13;4932323;29;20054;-48
2021/01/29 01:59:50;;;;;;;1.38;1.00;;;;;;;7.31;83.01;94495.75;4910027;29;20048;-47
2021/01/29 02:02:30;;;;;;;0.93;0.80;;;;;;;7.19;83.42;94480.50;4894989;29;20076;-46
2021/01/29 02:05:23;;;;;;;1.02;0.90;;;;;;;7.31;83.00;94480.38;4926384;29;20052;-48
2021/01/29 02:08:11;;;;;;;0.93;0.70;;;;;;;7.26;83.07;94469.91;4923524;29;20057;-49
2021/01/29 02:11:17;;;;;;;1.25;0.70;;;;;;;7.27;83.15;94463.38;4932447;29;20118;-44
2021/01/29 02:14:03;;;;;;;0.70;0.70;;;;;;;7.35;82.90;94459.75;4933436;29;20051;-50
2021/01/29 02:17:06;;;;;;;0.80;0.80;;;;;;;7.55;81.75;94457.91;4929823;29;20060;-46
2021/01/29 02:20:33;;;;;;;0.80;0.80;;;;;;;7.34;82.79;94458.16;4916570;29;20056;-46
2021/01/29 02:23:17;;;;;;;1.08;0.60;;;;;;;7.30;83.21;94453.84;4923727;29;20139;-47
2021/01/29 02:26:46;;;;;;;0.80;0.70;;;;;;;7.39;82.80;94457.16;4930003;29;20051;-48
2021/01/29 02:29:20;;;;;;;0.90;0.70;;;;;;;7.32;83.00;94455.06;4948354;29;20052;-43
2021/01/29 02:32:47;;;;;;;1.05;0.75;;;;;;;7.46;82.47;94462.69;4932430;29;20059;-44
2021/01/29 02:35:42;;;;;;;0.75;0.60;;;;;;;7.37;82.73;94437.88;4895328;29;20056;-43
2021/01/29 02:38:43;;;;;;;1.67;1.40;;;;;;;7.22;83.35;94448.28;4932032;29;20492;-47
2021/01/29 02:41:31;;;;;;;2.28;0.70;;;;;;;7.46;82.40;94438.47;4919559;29;20071;-49
2021/01/29 02:44:34;;;;;;;0.80;0.43;;;;;;;7.34;82.72;94431.25;4913679;29;20076;-49
2021/01/29 02:47:23;;;;;;;;;;;;;;;7.26;83.06;94419.56;4921165;29;20108;-47
2021/01/29 02:50:19;;;;;;;0.80;0.55;;;;;;;7.24;83.34;94410.28;4932953;28;20005;-49
2021/01/29 02:53:18;;;;;;;0.70;0.45;;;;;;;7.28;83.28;94416.53;4936600;29;20426;-46
2021/01/29 02:56:22;;;;;;;0.40;0.40;;;;;;;7.35;82.94;94408.63;4937437;29;20064;-47
2021/01/29 02:59:17;;;;;;;0.68;0.60;;;;;;;7.24;84.08;94405.66;4922974;29;20077;-48
2021/01/29 03:02:18;;;;;;;0.70;0.57;;;;;;;7.18;85.24;94406.28;4925640;29;20056;-47
2021/01/29 03:05:36;;;;;;;0.82;0.77;;;;;;;7.05;85.82;94392.13;4935550;29;20067;-52
2021/01/29 03:08:05;;;;;;;1.70;0.70;;;;;;;7.11;86.25;94398.03;4933193;29;20491;-48
2021/01/29 03:10:57;;;;;;;1.25;0.90;;;;;;;7.11;86.34;94390.75;4936488;29;20044;-51
2021/01/29 03:13:48;;;;;;;1.43;0.90;;;;;;;7.13;86.26;94385.03;4932271;29;20514;-48
2021/01/29 03:16:53;;;;;;;1.13;0.60;;;;;;;7.13;86.29;94393.88;4934913;29;20067;-46
2021/01/29 03:19:49;;;;;;;0.85;0.68;;;;;;;7.08;86.73;94385.28;4929851;29;20090;-50
2021/01/29 03:22:41;;;;;;;1.13;0.88;;;;;;;7.10;86.77;94372.28;4933189;29;20055;-48
2021/01/29 03:25:33;;;;;;;0.60;0.60;;;;;;;7.25;85.93;94383.03;4935189;29;20495;-46
2021/01/29 03:28:26;;;;;;;1.40;0.80;;;;;;;7.27;85.73;94361.16;4923748;29;20055;-47
2021/01/29 03:31:14;;;;;;;0.60;0.60;;;;;;;7.17;86.85;94365.16;4936065;29;20067;-48
2021/01/29 03:34:09;;;;;;;1.30;0.80;;;;;;;7.24;86.20;94362.63;4936182;29;20142;-47
2021/01/29 03:37:29;;;;;;;1.88;0.85;;;;;;;7.03;87.92;94356.75;4930531;29;20099;-48
2021/01/29 03:40:15;;;;;;;0.50;0.50;;;;;;;6.91;88.41;94354.94;4935819;29;20417;-49
2021/01/29 03:43:06;;;;;;;0.88;0.65;;;;;;;6.91;88.82;94346.88;4931532;29;20052;-48
2021/01/29 03:46:14;;;;;;;1.30;0.60;;;;;;;6.91;88.92;94348.78;4931753;29;20055;-48
2021/01/29 03:49:31;;;;;;;0.68;0.47;;;;;;;6.94;89.32;94334.66;4936181;29;20054;-47
2021/01/29 03:52:40;;;;;;;0.65;0.52;;;;;;;6.86;90.22;94335.59;4932902;29;20058;-47
2021/01/29 03:55:46;;;;;;;1.55;0.60;;;;;;;6.82;91.16;94330.13;4935864;29;20048;-49
2021/01/29 03:59:03;;;;;;;1.27;0.60;;;;;;;6.91;90.86;94332.66;4916720;29;20164;-48
2021/01/29 04:02:11;;;;;;;1.52;0.60;;;;;;;6.85;91.30;94331.34;4926946;29;20466;-49
2021/01/29 04:05:17;;;;;;;;;;;;;;;6.90;91.44;94315.75;4969177;28;20046;-47
2021/01/29 04:08:32;;;;;;;0.63;0.60;;;;;;;7.06;90.65;94314.97;4926124;28;20389;-48
2021/01/29 04:11:23;;;;;;;2.08;0.57;;;;;;;7.12;89.65;94306.28;4924187;29;20059;-50
2021/01/29 04:14:43;;;;;;;1.25;0.70;;;;;;;6.88;91.17;94303.78;4930092;29;20051;-51
2021/01/29 04:17:37;;;;;;;2.17;0.80;;;;;;;6.99;90.43;94294.06;4934632;29;20055;-52
2021/01/29 04:20:31;;;;;;;1.80;0.80;;;;;;;6.76;91.08;94278.56;4930420;29;20102;-49
2021/01/29 04:23:03;;;;;;;1.75;0.80;;;;;;;6.85;90.67;94289.09;4933794;29;20059;-49
2021/01/29 04:25:34;;;;;;;2.47;0.85;;;;;;;6.85;90.52;94293.72;4934311;29;20138;-48
2021/01/29 04:28:07;;;;;;;0.85;0.70;;;;;;;6.85;90.38;94282.97;4935907;29;20556;-47
2021/01/29 04:30:35;;;;;;;1.55;0.90;;;;;;;6.72;90.81;94283.03;4933270;29;20048;-46
2021/01/29 04:33:07;;;;;;;1.25;0.70;;;;;;;6.82;90.40;94275.59;4934244;29;20494;-47
2021/01/29 04:35:37;;;;;;;2.15;0.70;;;;;;;6.84;90.11;94278.72;4934913;28;20052;-50
2021/01/29 04:38:10;;;;;;;1.10;0.70;;;;;;;6.81;90.04;94274.03;4921050;29;20526;-47
2021/01/29 04:40:46;;;;;;;0.65;0.60;;;;;;;6.91;88.85;94258.16;4928038;29;20110;-48
2021/01/29 04:43:24;;;;;;;0.80;0.50;;;;;;;6.93;88.10;94260.50;4933735;29;20079;-48
2021/01/29 04:46:06;;;;;;;1.30;0.50;;;;;;;6.98;87.41;94257.53;4925905;29;20056;-49
2021/01/29 04:48:51;;;;;;;0.88;0.40;;;;;;;6.93;87.28;94263.19;4933973;29;20839;-50
2021/01/29 04:51:35;;;;;;;2.20;0.38;;;;;;;7.00;86.12;94256.06;4931779;29;20083;-48
2021/01/29 04:54:33;;;;;;;1.42;0.50;;;;;;;7.01;85.59;94259.53;4934327;29;20548;-49
2021/01/29 04:57:31;;;;;;;1.02;0.40;;;;;;;7.01;84.85;94267.59;4926094;29;20146;-50
2021/01/29 05:00:32;;;;;;;0.60;0.40;;;;;;;6.98;84.37;94257.53;4928286;29;20055;-48
2021/01/29 05:03:51;;;;;;;0.47;0.40;;;;;;;6.98;84.51;94263.69;4951111;28;20058;-48
2021/01/29 05:07:05;;;;;;;0.30;0.30;;;;;;;6.96;83.70;94255.19;4931881;29;20052;-44
2021/01/29 05:10:22;;;;;;;1.67;0.43;;;;;;;6.85;84.68;94256.06;4919621;29;20505;-48
2021/01/29 05:13:17;;;;;;;1.88;0.40;;;;;;;6.85;83.45;94243.41;4946567;28;20181;-46
2021/01/29 05:16:08;;;;;;;0.73;0.40;;;;;;;6.71;84.25;94243.09;4950835;28;20121;-47
2021/01/29 05:19:18;;;;;;;1.50;0.20;;;;;;;6.60;83.66;94236.66;4953882;28;20090;-47
2021/01/29 05:22:01;;;;;;;0.68;0.32;;;;;;;6.47;85.30;94239.47;4926163;28;20652;-50
2021/01/29 05:24:42;;;;;;;0.40;0.30;;;;;;;6.38;85.95;94238.09;4951840;28;20531;-47
2021/01/29 05:27:11;;;;;;;0.20;0.20;;;;;;;6.38;86.11;94232.72;4952395;28;20393;-48
2021/01/29 05:29:49;;;;;;;0.93;0.32;;;;;;;6.28;86.22;94225.94;4944194;28;20072;-46
2021/01/29 05:32:35;;;;;;;0.70;0.28;;;;;;;6.29;86.51;94232.88;4936107;28;20067;-52
2021/01/29 05:35:29;;;;;;;1.75;0.28;;;;;;;6.16;86.05;94201.84;4937451;28;20102;-46
2021/01/29 05:38:17;;;;;;;0.93;0.30;;;;;;;6.16;86.95;94208.00;4952392;28;20130;-47
2021/01/29 05:40:59;;;;;;;0.82;0.50;;;;;;;6.01;87.67;94214.94;4967523;28;20074;-48
2021/01/29 05:44:22;;;;;;;2.03;0.50;;;;;;;6.08;88.23;94211.66;4950704;28;20098;-49
2021/01/29 05:47:09;;;;;;;0.70;0.40;;;;;;;6.04;88.39;94186.59;4929404;28;20051;-48
2021/01/29 05:50:01;;;;;;;1.95;0.40;;;;;;;6.02;88.00;94186.19;4946797;28;20141;-47
2021/01/29 05:53:05;;;;;;;0.65;0.45;;;;;;;5.95;88.30;94184.09;4949397;28;20063;-49
2021/01/29 05:55:37;;;;;;;;;;;;;;;5.96;87.63;94171.44;4952161;28;20051;-47
2021/01/29 05:58:09;;;;;;;1.40;0.35;;;;;;;5.90;88.59;94159.38;4949637;28;20025;-50
2021/01/29 06:00:55;;;;;;;2.90;0.50;;;;;;;5.91;88.53;94158.25;4952676;28;20063;-49
2021/01/29 06:03:48;;;;;;;1.38;0.55;;;;;;;5.96;88.61;94166.09;4950842;28;20063;-48
2021/01/29 06:06:22;;;;;;;1.73;0.60;;;;;;;5.93;88.93;94156.03;4942367;28;20103;-48
2021/01/29 06:09:10;;;;;;;1.30;0.52;;;;;;;6.03;87.92;94139.41;4943964;28;20055;-48
2021/01/29 06:11:46;;;;;;;0.75;0.40;;;;;;;5.98;88.18;94136.97;4951852;28;20047;-49
2021/01/29 06:14:38;;;;;;;1.35;0.40;;;;;;;5.79;89.08;94130.38;4943244;28;20110;-50
2021/01/29 06:17:37;;;;;;;1.35;0.65;;;;;;;5.82;89.12;94124.31;4953483;28;20063;-52
2021/01/29 06:20:13;;;;;;;0.55;0.50;;;;;;;5.84;89.25;94114.00;4945410;28;20118;-50
2021/01/29 06:22:58;;;;;;;2.38;0.60;;;;;;;5.79;89.52;94097.41;4948666;28;20523;-47
2021/01/29 06:25:27;;;;;;;0.75;0.50;;;;;;;5.78;89.31;94096.59;4952461;28;20082;-49
2021/01/29 06:28:06;;;;;;;2.65;0.70;;;;;;;5.74;89.90;94089.59;4950251;28;20055;-49
2021/01/29 06:30:44;;;;;;;2.67;0.55;;;;;;;5.81;89.29;94076.34;4940094;28;20051;-50
2021/01/29 06:33:30;;;;;;;2.40;1.00;;;;;;;5.78;89.66;94101.97;4951482;28;20640;-49
2021/01/29 06:36:18;;;;;;;0.43;0.43;;;;;;;5.91;88.25;94072.34;4947783;28;20051;-49
2021/01/29 06:39:12;;;;;;;1.48;0.60;;;;;;;5.88;88.62;94073.03;4940785;28;20058;-49
2021/01/29 06:42:13;;;;;;;1.85;0.70;;;;;;;5.86;88.55;94070.72;4951565;28;20058;-49
2021/01/29 06:45:11;;;;;;;1.13;0.40;;;;;;;5.91;87.83;94066.97;4953421;28;20075;-45
2021/01/29 06:47:56;;;;;;;1.35;0.80;;;;;;;5.90;88.22;94060.84;4949669;28;20573;-50
2021/01/29 06:50:35;;;;;;;1.83;0.90;;;;;;;5.90;87.90;94049.34;4940557;28;20477;-46
2021/01/29 06:53:27;;;;;;;1.85;0.85;;;;;;;5.92;87.87;94044.41;4951325;28;20937;-45
2021/01/29 06:56:25;;;;;;;2.00;0.90;;;;;;;5.90;87.61;94038.59;4951984;28;20047;-48
2021/01/29 06:59:21;;;;;;;3.38;1.90;;;;;;;5.96;87.17;94034.56;4949110;28;20059;-47
2021/01/29 07:02:27;;;;;;;1.67;1.05;;;;;;;6.07;86.06;94052.44;4937146;28;20054;-51
2021/01/29 07:05:00;;;;;;;2.55;1.30;;;;;;;6.01;86.44;94047.69;4944745;28;20500;-51
2021/01/29 07:07:48;;;;;;;1.50;0.75;;;;;;;6.06;86.00;94047.44;4945560;28;20052;-47
2021/01/29 07:10:28;;;;;;;2.10;0.77;;;;;;;6.08;85.26;94043.28;4952789;28;20480;-47
2021/01/29 07:13:28;;;;;;;1.23;0.55;;;;;;;6.17;84.52;94053.03;4953919;28;20109;-48
2021/01/29 07:16:19;;;;;;;1.48;0.40;;;;;;;6.25;84.15;94050.16;4945369;28;20755;-48
2021/01/29 07:19:16;;;;;;;1.20;0.60;;;;;;;6.26;84.39;94054.41;4967119;28;20176;-47
2021/01/29 07:22:10;;;;;;;0.93;0.50;;;;;;;6.46;82.94;94041.78;4948774;28;20099;-49
2021/01/29 07:24:56;;;;;;;2.00;0.50;;;;;;;6.49;83.44;94040.31;4967021;28;20063;-48
2021/01/29 07:27:44;;;;;;;0.52;0.38;;;;;;;6.53;83.03;94028.50;4942657;29;20119;-49
2021/01/29 07:30:46;;;;;;;0.80;0.50;;;;;;;6.59;82.95;94029.00;4938614;28;20043;-50
2021/01/29 07:33:30;;;;;;;0.60;0.40;;;;;;;6.61;82.67;94032.13;4954359;28;20047;-48
2021/01/29 07:36:47;;;;;;;2.47;0.60;;;;;;;6.86;81.96;94040.69;4955082;29;20130;-50
2021/01/29 07:39:55;;;;;;;1.02;0.20;;;;;;;6.93;81.78;94029.28;4947068;28;20517;-48
2021/01/29 07:42:35;;;;;;;1.00;0.25;;;;;;;6.95;82.37;94033.16;4936687;29;20661;-48
2021/01/29 07:45:19;;;;;;;0.20;0.20;;;;;;;7.03;82.39;94042.16;4947914;28;20051;-49
2021/01/29 07:48:01;;;;;;;0.38;0.30;;;;;;;7.16;82.09;94037.41;4945990;29;20109;-48
2021/01/29 07:50:35;;;;;;;0.50;0.30;;;;;;;7.23;81.75;94038.28;4954687;28;20043;-47
2021/01/29 07:53:01;;;;;;;0.70;0.50;;;;;;;7.30;81.90;94037.66;4955580;28;20086;-52
2021/01/29 07:55:32;;;;;;;0.82;0.50;;;;;;;7.39;81.41;94030.13;4956686;28;20126;-45
2021/01/29 07:58:29;;;;;;;1.10;0.70;;;;;;;7.34;81.67;94022.34;4953784;28;20079;-47
2021/01/29 08:01:14;;;;;;;0.98;0.68;;;;;;;7.45;81.27;94023.31;4956242;28;20055;-44
2021/01/29 08:04:07;;;;;;;0.45;0.45;;;;;;;7.54;81.38;94041.13;4956305;28;20059;-47
2021/01/29 08:06:52;;;;;;;;;;;;;;;7.60;81.20;94028.91;4952153;28;20071;-47
2021/01/29 08:09:30;;;;;;;0.77;0.40;;;;;;;7.58;81.30;94047.38;4958115;28;19977;-45
2021/01/29 08:12:01;;;;;;;2.80;1.55;;;;;;;7.64;81.16;94044.00;4956488;28;20066;-53
2021/01/29 08:15:03;;;;;;;0.90;0.40;;;;;;;7.53;82.61;94051.09;4955559;28;20086;-42
2021/01/29 08:17:58;;;;;;;1.98;0.40;;;;;;;7.62;81.79;94048.97;4956247;28;20083;-44
2021/01/29 08:20:45;;;;;;;1.23;0.22;;;;;;;7.72;81.61;94052.97;4942452;28;20406;-41
2021/01/29 08:23:32;;;;;;;1.35;0.30;;;;;;;7.79;81.09;94063.84;4952899;28;20086;-43
2021/01/29 08:26:29;;;;;;;0.95;0.40;;;;;;;7.78;81.18;94058.84;4955826;28;20130;-44
2021/01/29 08:29:28;;;;;;;0.50;0.40;;;;;;;7.98;78.61;94052.22;4949163;28;20066;-49
2021/01/29 08:32:21;;;;;;;0.70;0.30;;;;;;;8.04;78.39;94050.78;4922860;29;20052;-48
2021/01/29 08:35:34;;;;;;;1.55;0.52;;;;;;;8.06;77.64;94055.81;4952732;28;20473;-44
2021/01/29 08:38:29;;;;;;;0.50;0.40;;;;;;;8.11;77.29;94047.44;4940008;28;20063;-48
2021/01/29 08:41:18;;;;;;;0.40;0.30;;;;;;;8.05;76.65;94070.41;4945456;28;20055;-43
2021/01/29 08:44:13;;;;;;;0.40;0.38;;;;;;;8.10;76.87;94062.81;4954908;28;20431;-44
2021/01/29 08:46:51;;;;;;;0.40;0.30;;;;;;;8.02;74.46;94050.38;4954666;28;20123;-43
2021/01/29 08:49:37;;;;;;;0.63;0.30;;;;;;;8.11;73.73;94069.75;4946699;28;20055;-47
2021/01/29 08:52:53;;;;;;;0.50;0.30;;;;;;;8.02;72.57;94071.91;4954597;28;20114;-45
2021/01/29 08:55:32;;;;;;;0.25;0.25;;;;;;;8.04;72.59;94088.50;4943173;28;20472;-48
2021/01/29 08:58:07;;;;;;;0.60;0.20;;;;;;;8.05;72.10;94100.81;4952659;28;20059;-46
2021/01/29 09:00:36;;;;;;;0.75;0.15;;;;;;;7.93;71.95;94091.03;4936083;29;20115;-43
2021/01/29 09:03:22;;;;;;;1.30;0.60;;;;;;;8.05;71.64;94079.28;4941782;29;20051;-45
2021/01/29 09:05:58;;;;;;;1.00;0.45;;;;;;;8.00;72.29;94100.34;4953467;28;20055;-49
2021/01/29 09:08:24;;;;;;;0.82;0.30;;;;;;;7.96;73.06;94094.88;4952017;29;20063;-44
2021/01/29 09:11:14;;;;;;;1.27;0.80;;;;;;;7.92;73.90;94104.84;4958091;28;20051;-46
2021/01/29 09:13:42;;;;;;;0.93;0.30;;;;;;;7.88;74.65;94122.84;4949854;28;20130;-48
2021/01/29 09:16:20;;;;;;;0.20;0.20;;;;;;;7.82;74.93;94116.22;4936017;29;20075;-42
2021/01/29 09:19:04;;;;;;;0.30;0.28;;;;;;;7.89;74.88;94135.16;4947914;29;20059;-42
2021/01/29 09:22:04;;;;;;;2.67;0.70;;;;;;;7.86;75.01;94133.19;4954613;28;20079;-43
2021/01/29 09:24:46;;;;;;;0.40;0.40;;;;;;;7.89;74.94;94143.25;4952446;29;20039;-42
2021/01/29 09:27:18;;;;;;;2.38;0.70;;;;;;;7.85;75.46;94135.09;4955460;28;20437;-45
2021/01/29 09:30:01;;;;;;;0.30;0.30;;;;;;;7.81;75.05;94136.19;4946767;28;20056;-43
2021/01/29 09:32:43;;;;;;;0.93;0.40;;;;;;;7.87;75.40;94132.84;4950447;28;20063;-43
2021/01/29 09:35:16;;;;;;;0.80;0.47;;;;;;;7.97;75.00;94137.63;4954010;28;20082;-46
2021/01/29 09:37:52;;;;;;;1.83;0.45;;;;;;;8.03;74.29;94135.44;4954092;28;20117;-47
2021/01/29 09:40:37;;;;;;;1.85;0.30;;;;;;;7.95;74.32;94136.44;4942383;28;20510;-44
2021/01/29 09:43:32;;;;;;;0.85;0.50;;;;;;;8.09;73.94;94142.06;4955575;28;20137;-42
2021/01/29 09:46:00;;;;;;;0.52;0.40;;;;;;;8.31;73.05;94137.78;4934297;28;20054;-44
2021/01/29 09:48:28;;;;;;;0.90;0.40;;;;;;;8.66;71.53;94153.75;4954916;28;20074;-44
2021/01/29 09:51:18;;;;;;;0.93;0.65;;;;;;;8.48;72.59;94130.38;4948345;28;20047;-45
2021/01/29 09:53:56;;;;;;;1.45;0.82;;;;;;;8.55;71.86;94147.44;4968948;28;20114;-51
2021/01/29 09:56:37;;;;;;;1.48;0.40;;;;;;;8.74;71.80;94135.78;4962946;28;20097;-49
2021/01/29 09:59:31;;;;;;;1.02;0.43;;;;;;;8.76;71.23;94130.00;4955593;28;20138;-43
2021/01/29 10:02:15;;;;;;;1.58;0.70;;;;;;;8.91;70.65;94131.75;4960353;28;20494;-45
2021/01/29 10:05:13;;;;;;;0.47;0.40;;;;;;;8.80;71.31;94141.63;4954174;28;20090;-48
2021/01/29 10:07:47;;;;;;;1.42;0.40;;;;;;;8.95;70.68;94131.81;4933620;29;20140;-47
2021/01/29 10:10:20;;;;;;;0.30;0.30;;;;;;;8.81;70.46;94138.56;4943664;29;20536;-48
2021/01/29 10:12:57;;;;;;;0.88;0.30;;;;;;;8.85;70.23;94144.00;4953348;28;20416;-48
2021/01/29 10:15:32;;;;;;;0.98;0.40;;;;;;;8.87;70.32;94123.63;4953144;28;20058;-53
2021/01/29 10:18:22;;;;;;;0.40;0.30;;;;;;;8.72;70.85;94148.06;4938327;28;20071;-44
2021/01/29 10:20:50;;;;;;;;;;;;;;;8.73;70.58;94146.91;4946734;29;20413;-44
2021/01/29 10:23:23;;;;;;;0.40;0.40;;;;;;;8.70;70.56;94142.25;4952791;28;19923;-48
2021/01/29 10:26:13;;;;;;;1.20;0.40;;;;;;;8.79;70.69;94145.47;4952185;28;20043;-43
2021/01/29 10:28:58;;;;;;;0.40;0.40;;;;;;;8.58;70.97;94145.91;4950829;28;20106;-45
2021/01/29 10:31:26;;;;;;;0.47;0.22;;;;;;;8.63;71.41;94132.91;4952590;28;20461;-46
2021/01/29 10:34:25;;;;;;;1.02;0.40;;;;;;;8.80;70.63;94137.00;4953259;28;20047;-44
2021/01/29 10:37:02;;;;;;;0.22;0.22;;;;;;;8.93;70.48;94145.63;4949722;28;20063;-46
2021/01/29 10:39:49;;;;;;;0.40;0.30;;;;;;;8.91;70.22;94155.25;4949452;28;20047;-46
2021/01/29 10:42:21;;;;;;;0.22;0.22;;;;;;;8.85;70.76;94150.16;4934274;29;20169;-42
2021/01/29 10:44:52;;;;;;;0.50;0.40;;;;;;;9.05;70.13;94148.13;4934070;29;20565;-46
2021/01/29 10:47:33;;;;;;;2.67;0.70;;;;;;;8.87;70.29;94144.41;4934737;29;20055;-47
2021/01/29 10:50:28;;;;;;;0.55;0.40;;;;;;;8.95;70.37;94145.28;4950568;29;20043;-48
2021/01/29 10:53:04;;;;;;;0.93;0.40;;;;;;;8.97;70.36;94162.69;4952441;28;20135;-42
2021/01/29 10:55:30;;;;;;;0.95;0.40;;;;;;;9.07;70.16;94150.47;4954151;28;20460;-48
2021/01/29 10:58:25;;;;;;;0.20;0.20;;;;;;;9.22;69.69;94136.00;4953711;28;20055;-45
2021/01/29 11:00:58;;;;;;;0.65;0.40;;;;;;;9.03;70.17;94163.88;4934945;29;20143;-47
2021/01/29 11:03:54;;;;;;;0.85;0.50;;;;;;;9.22;69.40;94146.78;4959805;23;20055;-48
2021/01/29 11:06:26;;;;;;;0.50;0.50;;;;;;;9.21;69.70;94136.38;4961586;28;20142;-47
2021/01/29 11:08:58;;;;;;;0.52;0.40;;;;;;;9.43;69.12;94167.88;4973873;28;20058;-46
2021/01/29 11:11:32;;;;;;;1.35;0.50;;;;;;;9.36;69.39;94152.38;4975476;28;20567;-50
2021/01/29 11:14:29;;;;;;;0.93;0.50;;;;;;;9.42;69.50;94150.09;4955439;29;20074;-47
2021/01/29 11:17:05;;;;;;;1.10;0.40;;;;;;;9.58;69.11;94172.28;4956270;28;20127;-44
2021/01/29 11:19:42;;;;;;;1.02;0.50;;;;;;;9.39;69.17;94158.16;4956351;28;20567;-47
2021/01/29 11:22:30;;;;;;;1.40;0.52;;;;;;;9.45;68.66;94165.56;4955995;28;20047;-45
2021/01/29 11:24:59;;;;;;;0.50;0.35;;;;;;;9.35;68.79;94160.81;4955657;28;20062;-44
2021/01/29 11:27:32;;;;;;;0.95;0.55;;;;;;;9.73;67.92;94154.31;4956308;28;20081;-46
2021/01/29 11:30:11;;;;;;;0.38;0.30;;;;;;;10.17;66.24;94159.00;4956162;28;20117;-48
2021/01/29 11:32:40;;;;;;;1.30;0.40;;;;;;;10.05;65.64;94157.34;4953923;29;20078;-46
2021/01/29 11:35:47;;;;;;;0.80;0.40;;;;;;;9.23;67.54;94156.47;4956168;28;20110;-45
2021/01/29 11:38:23;;;;;;;1.33;0.32;;;;;;;9.57;67.25;94162.63;4963996;28;20587;-44
2021/01/29 11:41:15;;;;;;;1.42;0.50;;;;;;;9.72;66.79;94160.09;4955919;28;20055;-43
2021/01/29 11:44:32;;;;;;;0.40;0.35;;;;;;;10.55;62.44;94159.72;4960127;28;20101;-44
2021/01/29 11:47:19;;;;;;;1.17;0.47;;;;;;;11.00;60.88;94158.47;4963277;28;20205;-45
2021/01/29 11:49:59;;;;;;;0.20;0.20;;;;;;;10.78;61.00;94164.91;4960793;28;20082;-47
2021/01/29 11:52:33;;;;;;;0.63;0.40;;;;;;;10.40;62.00;94150.75;4974309;28;20082;-45
2021/01/29 11:55:12;;;;;;;0.60;0.30;;;;;;;9.88;63.15;94166.06;4974827;28;20137;-46
2021/01/29 11:57:50;;;;;;;2.20;0.40;;;;;;;10.23;62.76;94164.81;4974851;28;20051;-48
2021/01/29 12:00:40;;;;;;;0.50;0.30;;;;;;;9.44;65.56;94166.72;4956108;28;20089;-45
2021/01/29 12:03:35;;;;;;;0.52;0.40;;;;;;;9.47;64.84;94147.09;4954613;28;20619;-47
2021/01/29 12:06:22;;;;;;;0.73;0.50;;;;;;;9.36;66.03;94162.41;4955335;28;20055;-48
2021/01/29 12:09:00;;;;;;;0.57;0.40;;;;;;;9.12;66.64;94161.69;4967570;28;20136;-44
2021/01/29 12:11:45;;;;;;;0.50;0.45;;;;;;;9.19;66.89;94165.63;4974399;28;20051;-45
2021/01/29 12:14:17;;;;;;;1.58;0.90;;;;;;;9.39;66.34;94183.22;4973646;28;20113;-46
2021/01/29 12:16:53;;;;;;;1.20;0.33;;;;;;;9.45;65.95;94157.47;4974888;28;20047;-47
2021/01/29 12:19:43;;;;;;;1.10;0.40;;;;;;;9.16;66.85;94169.84;4958621;28;20058;-51
2021/01/29 12:22:13;;;;;;;3.75;0.60;;;;;;;9.43;65.18;94164.41;4973148;28;20460;-46
2021/01/29 12:24:53;;;;;;;1.95;0.50;;;;;;;9.29;66.24;94173.84;4973474;28;20082;-48
2021/01/29 12:28:05;;;;;;;0.82;0.40;;;;;;;9.13;66.68;94165.97;4969391;28;20130;-48
2021/01/29 12:30:41;;;;;;;2.55;0.60;;;;;;;9.21;66.73;94163.34;4953851;28;20086;-46
2021/01/29 12:33:13;;;;;;;1.60;0.40;;;;;;;9.27;65.89;94154.56;4952824;28;20051;-48
2021/01/29 12:35:58;;;;;;;0.63;0.60;;;;;;;9.76;63.57;94163.63;4954863;28;20047;-46
2021/01/29 12:38:41;;;;;;;0.98;0.45;;;;;;;9.71;62.88;94166.63;4955005;28;20079;-49
2021/01/29 12:41:18;;;;;;;1.02;0.52;;;;;;;9.19;64.25;94169.09;4954582;28;20142;-49
2021/01/29 12:44:04;;;;;;;1.23;0.40;;;;;;;9.51;63.88;94161.41;4954715;28;20051;-46
2021/01/29 12:46:37;;;;;;;1.25;0.70;;;;;;;10.30;60.24;94159.50;4973645;28;20520;-46
2021/01/29 12:49:23;;;;;;;0.93;0.50;;;;;;;9.50;62.94;94159.84;4971943;28;20051;-49
2021/01/29 12:52:02;;;;;;;3.92;0.60;;;;;;;12.16;54.75;94147.69;4954449;28;20059;-51
2021/01/29 12:54:40;;;;;;;0.80;0.60;;;;;;;11.30;55.36;94141.22;4952165;29;20469;-51
2021/01/29 12:57:27;;;;;;;2.60;0.98;;;;;;;10.33;57.90;94136.38;4954281;28;20138;-50
2021/01/29 13:00:06;;;;;;;1.73;0.50;;;;;;;11.48;54.93;94130.47;4954187;28;20130;-51
2021/01/29 13:02:37;;;;;;;2.03;0.52;;;;;;;11.55;54.23;94132.44;4953372;28;20138;-47
2021/01/29 13:05:15;;;;;;;0.60;0.40;;;;;;;11.43;53.66;94126.19;4953979;28;20176;-46
2021/01/29 13:07:53;;;;;;;1.20;0.50;;;;;;;10.83;55.15;94109.69;4954406;28;20130;-46